Time;durP1;ratioP1;P1;durP2;ratioP2;P2;SDS_P1;SDS_P2;PMS_P1;PMS_P2;Temp;Humidity;BMP_temperature;BMP_pressure;BME280_temperature;BME280_humidity;BME280_pressure;Samples;Min_cycle;Max_cycle;Signal;HPM_P1;HPM_P2
2022/01/20 00:00:21;;;;;;;482.25;447.90;;;;;;;5.15;80.01;101032.81;5025909;28;20584;-69
2022/01/20 00:02:55;;;;;;;171.52;160.82;;;;;;;5.19;80.41;101026.66;5022502;28;20788;-69
2022/01/20 00:05:36;;;;;;;721.05;618.88;;;;;;;5.32;78.87;101026.28;5020721;28;20049;-69
2022/01/20 00:08:11;;;;;;;;;;;;;;;4.99;79.91;101039.28;5019238;28;20104;-69
2022/01/20 00:27:08;;;;;;;327.02;304.58;;;;;;;4.56;78.75;101055.84;5024085;28;20118;-69
2022/01/20 00:29:59;;;;;;;85.15;78.05;;;;;;;4.81;77.30;101050.94;5023483;28;20139;-69
2022/01/20 00:32:27;;;;;;;396.92;370.95;;;;;;;4.77;76.28;101039.78;5022572;28;20057;-69
2022/01/20 00:37:34;;;;;;;158.20;148.88;;;;;;;4.85;75.86;101056.03;5020221;28;20053;-69
2022/01/20 00:40:01;;;;;;;153.93;143.02;;;;;;;4.89;75.08;101043.84;5023099;28;20115;-69
2022/01/20 00:42:27;;;;;;;147.15;138.48;;;;;;;4.72;75.11;101045.97;5023217;28;21411;-68
2022/01/20 00:44:54;;;;;;;579.58;534.88;;;;;;;4.78;74.74;101053.63;5023269;28;20083;-69
2022/01/20 00:47:22;;;;;;;639.53;556.40;;;;;;;4.64;74.77;101066.94;5023418;28;20081;-69
2022/01/20 00:49:50;;;;;;;165.73;155.55;;;;;;;4.57;74.91;101056.72;5021774;28;20073;-69
2022/01/20 00:52:16;;;;;;;279.13;262.35;;;;;;;4.47;74.77;101069.06;5022328;28;20077;-70
2022/01/20 00:54:42;;;;;;;415.35;383.63;;;;;;;4.32;74.63;101075.38;5021822;28;20512;-69
2022/01/20 00:57:09;;;;;;;505.17;462.20;;;;;;;4.39;74.83;101086.53;5024013;28;20577;-69
2022/01/20 00:59:36;;;;;;;215.43;203.27;;;;;;;4.50;74.11;101094.94;5023943;28;20057;-69
2022/01/20 01:02:06;;;;;;;180.93;171.13;;;;;;;4.53;73.74;101100.06;5025699;28;20481;-69
2022/01/20 01:04:34;;;;;;;159.70;149.68;;;;;;;4.55;72.79;101081.84;5026285;28;20085;-69
2022/01/20 01:07:21;;;;;;;188.15;179.27;;;;;;;4.51;73.36;101091.44;5028067;28;20049;-69
2022/01/20 01:09:48;;;;;;;184.85;174.30;;;;;;;4.47;73.49;101101.94;5029990;28;20076;-69
2022/01/20 01:12:19;;;;;;;185.70;174.30;;;;;;;4.38;73.81;101109.03;5028804;28;20057;-69
2022/01/20 01:14:49;;;;;;;322.00;299.00;;;;;;;4.26;73.17;101105.81;5029934;28;20512;-69
2022/01/20 01:20:15;;;;;;;139.68;132.00;;;;;;;4.54;72.65;101112.19;5030269;28;20044;-69
2022/01/20 01:22:41;;;;;;;;;;;;;;;4.09;73.75;101107.91;5030657;28;20052;-69
2022/01/20 01:25:08;;;;;;;231.18;217.15;;;;;;;4.09;73.58;101118.28;5027811;28;20011;-69
2022/01/20 01:27:38;;;;;;;129.48;120.68;;;;;;;4.17;73.54;101106.88;5026794;28;20076;-67
2022/01/20 01:30:13;;;;;;;179.93;167.53;;;;;;;4.34;72.12;101099.59;5029666;28;20495;-69
2022/01/20 01:32:48;;;;;;;216.50;203.27;;;;;;;4.03;73.27;101114.03;5029885;28;20120;-69
2022/01/20 01:35:17;;;;;;;123.72;117.00;;;;;;;4.20;72.83;101109.41;5029664;28;20053;-69
2022/01/20 01:40:29;;;;;;;107.22;97.43;;;;;;;4.12;71.91;101108.69;5028307;28;20615;-69
2022/01/20 01:42:57;;;;;;;101.32;94.53;;;;;;;4.12;71.88;101098.31;5021855;28;20045;-69
2022/01/20 01:45:28;;;;;;;316.77;295.95;;;;;;;4.26;71.01;101090.25;5025433;28;20481;-69
2022/01/20 01:47:55;;;;;;;237.23;216.13;;;;;;;4.07;71.67;101092.34;5026062;28;20076;-69
2022/01/20 01:50:23;;;;;;;136.82;127.13;;;;;;;4.00;71.69;101095.09;5025590;28;20077;-69
2022/01/20 01:52:51;;;;;;;237.75;222.70;;;;;;;4.10;71.59;101091.47;5025050;28;20077;-69
2022/01/20 01:55:18;;;;;;;351.45;327.40;;;;;;;4.01;71.13;101079.50;5026024;28;20633;-70
2022/01/20 01:57:44;;;;;;;94.13;87.32;;;;;;;3.99;71.12;101098.59;5026243;28;20497;-70
2022/01/20 02:00:12;;;;;;;134.73;126.57;;;;;;;3.95;71.31;101099.53;5027290;28;20151;-70
2022/01/20 02:02:40;;;;;;;112.00;106.13;;;;;;;4.05;71.07;101095.88;5021670;28;20045;-70
2022/01/20 02:05:10;;;;;;;123.45;115.60;;;;;;;4.15;70.26;101089.59;5020099;28;20175;-69
2022/01/20 02:08:08;;;;;;;128.70;119.85;;;;;;;4.08;70.34;101088.03;5018560;28;20052;-70
2022/01/20 02:18:49;;;;;;;381.58;353.38;;;;;;;3.64;71.79;101074.16;5024844;28;20057;-70
2022/01/20 02:21:17;;;;;;;232.13;216.55;;;;;;;3.63;72.02;101061.19;5025648;28;20053;-70
2022/01/20 02:23:46;;;;;;;172.05;161.27;;;;;;;3.84;71.34;101060.81;5024842;28;20135;-70
2022/01/20 02:26:12;;;;;;;190.98;179.68;;;;;;;3.76;71.39;101067.88;5026666;28;20080;-73
2022/01/20 02:28:39;;;;;;;296.48;274.35;;;;;;;3.60;71.95;101056.06;5025714;28;20068;-70
2022/01/20 02:31:06;;;;;;;315.75;294.77;;;;;;;3.43;72.53;101058.97;5025845;28;20115;-70
2022/01/20 02:33:33;;;;;;;225.27;210.35;;;;;;;3.41;72.61;101052.94;5027287;28;20457;-70
2022/01/20 02:36:04;;;;;;;89.43;82.97;;;;;;;3.46;72.40;101053.75;5026688;28;20056;-70
2022/01/20 02:38:37;;;;;;;88.88;82.95;;;;;;;3.66;71.88;101051.63;5026269;28;20076;-71
2022/01/20 02:46:34;;;;;;;128.60;120.15;;;;;;;3.49;71.90;101045.91;5024715;28;20645;-70
2022/01/20 02:49:00;;;;;;;464.73;433.33;;;;;;;3.35;72.03;101040.97;5023749;28;20524;-70
2022/01/20 02:51:27;;;;;;;109.43;101.88;;;;;;;3.56;71.47;101029.34;5023731;28;20072;-70
2022/01/20 02:53:55;;;;;;;101.25;94.88;;;;;;;3.55;71.23;101013.84;5022432;28;20073;-71
2022/01/20 02:56:21;;;;;;;267.77;249.18;;;;;;;3.63;70.98;101015.38;5022662;28;20111;-70
2022/01/20 02:58:47;;;;;;;81.55;75.57;;;;;;;3.83;70.41;101027.97;5023039;28;20465;-71
2022/01/20 03:01:14;;;;;;;282.88;264.70;;;;;;;3.56;71.03;101023.31;5026599;28;20065;-70
2022/01/20 03:03:41;;;;;;;90.25;83.97;;;;;;;3.57;71.24;101019.84;5022534;28;20060;-71
2022/01/20 03:06:08;;;;;;;133.90;124.78;;;;;;;3.52;71.63;101012.13;5022525;28;20084;-71
2022/01/20 03:08:34;;;;;;;155.35;146.32;;;;;;;3.64;71.31;101001.53;5020860;28;20130;-71
2022/01/20 03:11:02;;;;;;;167.35;156.93;;;;;;;3.73;71.43;101016.91;5022220;28;20053;-71
2022/01/20 03:13:29;;;;;;;227.73;210.80;;;;;;;3.47;72.84;101019.16;5023700;28;20073;-70
2022/01/20 03:15:55;;;;;;;141.50;131.57;;;;;;;3.57;72.75;101028.47;5024541;28;20076;-69
2022/01/20 03:18:22;;;;;;;225.75;209.50;;;;;;;3.68;72.54;101018.75;5023886;28;20107;-70
2022/01/20 03:20:48;;;;;;;254.82;236.55;;;;;;;3.60;73.34;101012.00;5024152;28;20072;-70
2022/01/20 03:23:14;;;;;;;315.15;293.85;;;;;;;3.43;74.00;101004.56;5024687;28;20464;-70
2022/01/20 03:25:41;;;;;;;274.90;256.75;;;;;;;3.42;74.48;100995.91;5025390;28;20535;-71
2022/01/20 03:28:08;;;;;;;109.18;100.65;;;;;;;3.62;74.13;101010.25;5022460;28;20076;-70
2022/01/20 03:30:35;;;;;;;191.80;179.55;;;;;;;3.53;74.70;100995.72;5024860;28;20076;-70
2022/01/20 03:33:01;;;;;;;145.80;136.40;;;;;;;3.61;74.75;100995.56;5027381;28;20420;-70
2022/01/20 03:35:28;;;;;;;446.25;409.70;;;;;;;3.66;74.65;100991.97;5030416;28;20132;-70
2022/01/20 03:37:54;;;;;;;271.67;253.18;;;;;;;3.60;74.96;100996.44;5028522;28;20068;-70
2022/01/20 03:40:23;;;;;;;211.50;197.65;;;;;;;3.63;75.05;100986.88;5027945;28;20077;-69
2022/01/20 03:42:49;;;;;;;191.65;181.43;;;;;;;3.61;75.04;100978.28;5030875;28;20053;-70
2022/01/20 03:45:17;;;;;;;285.67;266.95;;;;;;;3.63;75.25;100973.91;5029367;28;20124;-70
2022/01/20 03:47:44;;;;;;;229.13;208.90;;;;;;;3.71;75.10;100963.38;5028656;28;20468;-69
2022/01/20 03:50:59;;;;;;;527.80;478.33;;;;;;;3.64;74.55;100957.47;5029089;28;20107;-69
2022/01/20 03:52:57;;;;;;;179.23;167.75;;;;;;;3.78;74.92;100952.84;5029017;28;20122;-68
2022/01/20 03:55:24;;;;;;;122.65;115.55;;;;;;;3.99;74.01;100948.13;5029856;28;20092;-68
2022/01/20 03:57:50;;;;;;;243.88;228.95;;;;;;;3.98;74.09;100955.03;5028437;28;20053;-68
2022/01/20 04:00:18;;;;;;;350.70;325.38;;;;;;;4.03;74.09;100957.53;5027225;28;20080;-69
2022/01/20 04:02:44;;;;;;;210.68;197.88;;;;;;;4.03;74.71;100953.19;5027244;28;20080;-68
2022/01/20 04:05:11;;;;;;;308.80;284.15;;;;;;;3.98;74.58;100951.59;5029504;28;20068;-68
2022/01/20 04:07:37;;;;;;;120.30;113.75;;;;;;;3.99;75.21;100950.69;5029523;28;20080;-68
2022/01/20 04:10:04;;;;;;;549.05;499.05;;;;;;;3.95;75.36;100946.47;5026621;28;20054;-68
2022/01/20 04:12:30;;;;;;;330.50;309.67;;;;;;;3.90;75.71;100947.41;5026733;28;20057;-68
2022/01/20 04:15:00;;;;;;;340.50;314.17;;;;;;;3.92;75.83;100950.81;5026993;28;20122;-68
2022/01/20 04:17:28;;;;;;;129.77;121.65;;;;;;;4.15;75.35;100945.13;5027927;28;20050;-69
2022/01/20 04:19:54;;;;;;;200.60;187.65;;;;;;;4.04;75.68;100943.66;5024601;28;20053;-68
2022/01/20 04:22:20;;;;;;;282.38;266.52;;;;;;;4.14;75.92;100963.34;5025963;28;20108;-68
2022/01/20 04:24:47;;;;;;;134.35;126.43;;;;;;;4.23;75.95;100955.34;5026967;28;20076;-69
2022/01/20 04:27:13;;;;;;;602.08;549.75;;;;;;;4.23;76.35;100960.53;5028825;28;20072;-68
2022/01/20 04:29:39;;;;;;;343.00;322.63;;;;;;;4.26;76.60;100966.50;5027890;28;21407;-68
2022/01/20 04:32:06;;;;;;;348.10;326.63;;;;;;;4.31;76.51;100958.63;5025775;28;20115;-68
2022/01/20 04:34:34;;;;;;;323.88;297.00;;;;;;;4.11;77.34;100960.78;5026612;28;20072;-68
2022/01/20 04:37:04;;;;;;;502.80;464.73;;;;;;;3.83;78.40;100913.84;5023748;28;20084;-68
2022/01/20 04:39:32;;;;;;;481.85;439.00;;;;;;;3.75;79.27;100963.28;5025434;28;20096;-68
2022/01/20 04:41:59;;;;;;;339.33;315.92;;;;;;;3.82;79.36;100964.88;5028425;28;20143;-68
2022/01/20 04:44:39;;;;;;;397.75;366.77;;;;;;;3.85;79.46;100959.63;5028664;28;20052;-68
2022/01/20 04:47:16;;;;;;;145.07;136.88;;;;;;;3.93;79.13;100962.91;5029443;28;20136;-68
2022/01/20 04:57:56;;;;;;;127.55;120.47;;;;;;;3.70;80.88;100991.03;5031191;28;20140;-68
2022/01/20 05:00:23;;;;;;;136.02;128.60;;;;;;;3.80;80.95;100996.91;5030362;28;20053;-67
2022/01/20 05:02:49;;;;;;;505.48;458.65;;;;;;;3.66;80.97;100996.34;5033520;28;21417;-67
2022/01/20 05:05:17;;;;;;;246.80;231.20;;;;;;;3.45;81.34;101015.72;5033045;28;20067;-67
2022/01/20 05:07:43;;;;;;;156.27;147.05;;;;;;;3.44;81.31;101026.97;5033236;28;20420;-67
2022/01/20 05:10:12;;;;;;;138.23;131.07;;;;;;;3.79;79.75;101022.00;5033445;28;20060;-67
2022/01/20 05:13:01;;;;;;;152.90;144.73;;;;;;;3.86;79.08;101026.19;5032452;28;20056;-67
2022/01/20 05:15:26;;;;;;;122.93;116.00;;;;;;;4.07;77.95;101039.59;5032132;28;20064;-67
2022/01/20 05:17:53;;;;;;;74.13;70.28;;;;;;;4.25;76.96;101039.25;5032535;28;20053;-67
2022/01/20 05:20:21;;;;;;;244.45;230.18;;;;;;;3.90;77.45;101043.41;5031972;28;20061;-67
2022/01/20 05:22:47;;;;;;;294.20;277.75;;;;;;;3.50;77.72;101045.03;5038129;28;20086;-67
2022/01/20 05:25:14;;;;;;;84.38;79.78;;;;;;;3.20;79.64;101059.38;5036525;28;20088;-67
2022/01/20 05:27:40;;;;;;;142.35;135.18;;;;;;;2.87;80.30;101078.03;5032612;28;20057;-67
2022/01/20 05:30:08;;;;;;;288.45;269.92;;;;;;;2.29;81.56;101077.97;5037654;28;20159;-67
2022/01/20 05:32:35;;;;;;;297.77;279.85;;;;;;;2.30;80.12;101085.69;5033807;28;20096;-67
2022/01/20 05:35:01;;;;;;;103.93;97.80;;;;;;;2.43;77.34;101086.41;5034339;28;20057;-67
2022/01/20 05:37:29;;;;;;;163.93;155.20;;;;;;;2.57;74.43;101079.31;5034119;28;20489;-67
2022/01/20 05:39:55;;;;;;;151.85;142.88;;;;;;;2.60;72.34;101081.00;5029173;28;20102;-68
2022/01/20 05:42:21;;;;;;;111.55;105.45;;;;;;;2.59;71.99;101080.13;5026779;28;20099;-68
2022/01/20 05:44:50;;;;;;;84.53;79.63;;;;;;;2.68;70.48;101084.34;5025729;28;20080;-69
2022/01/20 05:47:25;;;;;;;139.70;131.70;;;;;;;2.63;69.37;101087.00;5027692;28;20074;-69
2022/01/20 05:49:51;;;;;;;194.98;182.45;;;;;;;2.55;69.80;101070.69;5027157;28;20064;-70
2022/01/20 05:52:19;;;;;;;106.00;99.97;;;;;;;2.72;69.48;101075.66;5026508;28;20228;-70
2022/01/20 05:54:47;;;;;;;132.45;124.70;;;;;;;2.67;69.90;101082.63;5028987;28;20045;-70
2022/01/20 05:57:13;;;;;;;237.15;224.20;;;;;;;2.80;69.44;101090.22;5029283;28;20098;-69
2022/01/20 05:59:39;;;;;;;198.27;184.98;;;;;;;2.54;71.06;101091.44;5029708;28;20076;-69
2022/01/20 06:02:12;;;;;;;348.77;326.30;;;;;;;2.51;71.46;101109.63;5028575;28;20072;-70
2022/01/20 06:04:39;;;;;;;75.97;71.57;;;;;;;2.74;71.59;101129.13;5030222;28;20063;-69
2022/01/20 06:07:05;;;;;;;247.45;231.60;;;;;;;2.31;74.84;101122.78;5029815;28;20077;-69
2022/01/20 06:09:32;;;;;;;252.38;233.70;;;;;;;2.03;79.14;101155.88;5027017;28;20442;-69
2022/01/20 06:11:59;;;;;;;141.95;134.20;;;;;;;1.61;82.92;101139.03;5022981;28;20463;-69
2022/01/20 06:14:28;;;;;;;108.93;102.25;;;;;;;1.61;84.00;101154.53;5022262;28;20469;-69
2022/01/20 06:16:54;;;;;;;124.78;117.18;;;;;;;1.69;83.58;101146.72;5020102;28;20076;-69
2022/01/20 06:19:21;;;;;;;134.68;125.78;;;;;;;1.72;83.41;101157.91;5019846;28;20178;-69
2022/01/20 06:21:48;;;;;;;124.75;116.88;;;;;;;1.75;82.63;101168.19;5020876;28;20111;-69
2022/01/20 06:24:14;;;;;;;135.00;126.80;;;;;;;1.69;82.48;101167.41;5020163;28;20096;-70
2022/01/20 06:26:40;;;;;;;134.43;127.65;;;;;;;1.82;81.87;101159.50;5020348;28;20140;-69
2022/01/20 06:29:08;;;;;;;80.40;75.90;;;;;;;2.15;81.50;101162.63;5020130;28;20190;-69
2022/01/20 06:31:34;;;;;;;163.65;155.52;;;;;;;2.00;81.44;101194.69;5019566;28;20219;-69
2022/01/20 06:34:01;;;;;;;149.38;140.25;;;;;;;2.15;81.49;101197.13;5016850;28;20126;-69
2022/01/20 06:36:27;;;;;;;76.90;71.70;;;;;;;2.22;80.87;101187.56;5017193;28;20068;-69
2022/01/20 06:38:54;;;;;;;138.27;129.25;;;;;;;2.12;80.42;101193.72;5016435;28;20130;-70
2022/01/20 06:41:20;;;;;;;125.35;116.93;;;;;;;1.91;80.09;101190.47;5020899;28;20049;-70
2022/01/20 06:43:48;;;;;;;181.70;171.23;;;;;;;1.90;77.55;101193.91;5022445;28;20089;-70
2022/01/20 06:46:15;;;;;;;117.18;110.88;;;;;;;1.95;75.77;101201.66;5024798;28;20045;-69
2022/01/20 06:48:42;;;;;;;69.85;65.20;;;;;;;1.80;73.01;101204.38;5023365;28;20585;-69
2022/01/20 06:51:08;;;;;;;89.20;84.15;;;;;;;1.98;72.64;101205.94;5025113;28;20694;-70
2022/01/20 06:53:34;;;;;;;184.50;173.85;;;;;;;1.94;71.36;101218.03;5023944;28;20081;-70
2022/01/20 06:56:01;;;;;;;177.25;167.35;;;;;;;1.78;70.81;101219.88;5024346;28;20226;-69
2022/01/20 06:58:27;;;;;;;64.25;60.63;;;;;;;1.87;69.59;101224.97;5025692;28;20048;-69
2022/01/20 07:00:53;;;;;;;164.10;153.40;;;;;;;1.85;69.89;101229.28;5026869;28;21105;-69
2022/01/20 07:03:21;;;;;;;58.13;54.83;;;;;;;2.01;69.23;101242.97;5026056;28;20115;-70
2022/01/20 07:05:47;;;;;;;119.95;112.25;;;;;;;1.83;69.66;101243.97;5027586;28;20765;-69
2022/01/20 07:08:14;;;;;;;150.25;140.93;;;;;;;1.74;69.63;101256.97;5026945;28;20077;-69
2022/01/20 07:10:40;;;;;;;37.88;34.90;;;;;;;1.93;69.18;101258.53;5027941;28;20072;-69
2022/01/20 07:13:06;;;;;;;37.38;35.28;;;;;;;2.11;68.09;101274.75;5025499;28;20095;-70
2022/01/20 07:15:33;;;;;;;73.30;68.78;;;;;;;2.07;67.90;101268.75;5025431;28;20389;-69
2022/01/20 07:17:59;;;;;;;58.58;54.55;;;;;;;2.27;67.56;101290.16;5024233;28;20068;-70
2022/01/20 07:20:28;;;;;;;51.78;47.72;;;;;;;2.07;68.15;101296.38;5023591;28;20156;-69
2022/01/20 07:22:55;;;;;;;123.53;115.63;;;;;;;1.93;67.89;101292.16;5024678;28;20785;-70
2022/01/20 07:25:21;;;;;;;47.35;44.20;;;;;;;2.02;68.17;101292.97;5024889;28;20511;-69
2022/01/20 07:27:47;;;;;;;82.40;76.25;;;;;;;2.05;67.70;101298.97;5022210;28;20076;-69
2022/01/20 07:30:14;;;;;;;121.28;114.68;;;;;;;2.14;67.67;101300.63;5024147;28;20084;-70
2022/01/20 07:32:40;;;;;;;47.15;43.90;;;;;;;2.61;66.10;101314.00;5023831;28;20081;-70
2022/01/20 07:35:08;;;;;;;52.90;49.95;;;;;;;2.42;66.49;101325.38;5024394;28;20053;-69
2022/01/20 07:37:35;;;;;;;45.80;42.20;;;;;;;2.44;67.15;101336.56;5023996;28;20057;-69
2022/01/20 07:40:02;;;;;;;140.20;131.32;;;;;;;2.26;67.66;101331.56;5024033;28;20147;-70
2022/01/20 07:42:28;;;;;;;47.83;44.10;;;;;;;2.62;66.77;101339.00;5017413;28;20341;-70
2022/01/20 07:44:54;;;;;;;100.05;93.93;;;;;;;2.41;67.28;101344.38;5016034;28;20068;-69
2022/01/20 07:47:21;;;;;;;50.97;46.40;;;;;;;2.30;67.61;101347.03;5017056;28;20131;-68
2022/01/20 07:49:47;;;;;;;170.38;161.18;;;;;;;2.31;67.28;101347.91;5016004;28;20077;-69
2022/01/20 07:52:14;;;;;;;108.70;102.15;;;;;;;2.33;67.36;101338.38;5016686;28;20069;-70
2022/01/20 07:54:42;;;;;;;77.28;72.57;;;;;;;2.43;67.37;101342.63;5017756;28;20127;-70
2022/01/20 07:57:09;;;;;;;374.65;340.75;;;;;;;2.32;67.19;101339.28;5015357;28;20468;-70
2022/01/20 07:59:36;;;;;;;76.78;72.78;;;;;;;2.58;66.46;101339.06;5016629;28;20497;-70
2022/01/20 08:02:03;;;;;;;76.90;71.28;;;;;;;2.43;66.70;101337.47;5017740;28;20081;-69
2022/01/20 08:04:29;;;;;;;262.75;245.73;;;;;;;2.43;66.90;101340.06;5016131;28;20100;-70
2022/01/20 08:06:56;;;;;;;50.45;46.20;;;;;;;2.69;66.43;101343.25;5017334;28;20068;-71
2022/01/20 08:09:23;;;;;;;147.10;137.85;;;;;;;2.38;67.47;101352.16;5018038;28;20099;-69
2022/01/20 08:11:51;;;;;;;178.57;166.73;;;;;;;2.26;67.87;101357.44;5021466;28;21036;-69
2022/01/20 08:14:17;;;;;;;69.88;64.22;;;;;;;2.62;66.90;101372.66;5024065;28;20508;-69
2022/01/20 08:16:44;;;;;;;311.70;286.20;;;;;;;2.31;67.69;101387.59;5024971;28;20140;-69
2022/01/20 08:19:10;;;;;;;48.83;45.03;;;;;;;2.61;67.56;101380.44;5023143;28;20088;-69
2022/01/20 08:21:36;;;;;;;104.53;97.53;;;;;;;2.63;66.85;101378.69;5024142;28;20103;-70
2022/01/20 08:24:03;;;;;;;143.38;134.48;;;;;;;2.85;65.92;101386.22;5022395;28;20072;-70
2022/01/20 08:26:30;;;;;;;64.35;59.78;;;;;;;2.70;66.89;101381.19;5022301;28;20073;-69
2022/01/20 08:28:58;;;;;;;167.75;157.43;;;;;;;2.66;66.50;101376.09;5024530;28;20057;-69
2022/01/20 08:31:25;;;;;;;61.25;57.05;;;;;;;3.16;65.76;101384.19;5026036;28;20123;-70
2022/01/20 08:33:51;;;;;;;108.72;101.78;;;;;;;3.04;65.55;101394.69;5025484;28;20580;-70
2022/01/20 08:36:17;;;;;;;329.65;309.25;;;;;;;3.05;65.12;101380.00;5027012;28;20443;-70
2022/01/20 08:38:44;;;;;;;343.50;317.02;;;;;;;3.03;65.51;101389.53;5026031;28;20069;-69
2022/01/20 08:41:10;;;;;;;118.10;110.78;;;;;;;3.34;64.57;101388.28;5025568;28;20128;-70
2022/01/20 08:43:38;;;;;;;102.30;96.55;;;;;;;3.77;63.31;101389.47;5027481;28;20080;-69
2022/01/20 08:46:08;;;;;;;285.73;264.52;;;;;;;3.60;63.29;101388.84;5027750;28;20045;-70
2022/01/20 08:48:34;;;;;;;345.95;321.25;;;;;;;3.45;63.40;101394.22;5027982;28;20535;-70
2022/01/20 08:51:02;;;;;;;131.65;123.07;;;;;;;3.63;63.10;101395.72;5028265;28;20977;-69
2022/01/20 08:53:28;;;;;;;168.52;158.20;;;;;;;3.73;62.59;101395.56;5028005;28;20056;-70
2022/01/20 08:55:54;;;;;;;96.38;91.07;;;;;;;4.00;61.95;101391.75;5027683;28;20053;-70
2022/01/20 08:58:21;;;;;;;246.50;232.50;;;;;;;3.93;61.66;101406.53;5027956;28;20072;-69
2022/01/20 09:00:47;;;;;;;130.15;122.72;;;;;;;4.23;61.13;101400.06;5028870;28;20091;-70
2022/01/20 09:03:15;;;;;;;119.90;112.40;;;;;;;4.72;59.96;101396.66;5026450;28;20060;-70
2022/01/20 09:05:41;;;;;;;216.60;205.07;;;;;;;4.67;59.66;101396.75;5026764;28;20089;-70
2022/01/20 09:08:08;;;;;;;161.05;152.40;;;;;;;5.16;58.82;101401.06;5024098;28;20080;-69
2022/01/20 09:10:39;;;;;;;148.98;140.43;;;;;;;5.45;56.94;101401.34;5026568;28;20072;-69
2022/01/20 09:15:54;;;;;;;396.63;372.33;;;;;;;5.18;57.09;101387.13;5031942;28;20057;-70
2022/01/20 09:18:24;;;;;;;159.80;151.23;;;;;;;5.29;57.65;101385.19;5024722;28;20136;-69
2022/01/20 09:20:50;;;;;;;540.50;499.48;;;;;;;5.63;55.93;101395.75;5026726;28;20053;-69
2022/01/20 09:23:17;;;;;;;114.10;108.40;;;;;;;6.32;55.76;101400.31;5024126;28;20040;-69
2022/01/20 09:25:44;;;;;;;417.30;391.70;;;;;;;6.33;54.22;101389.00;5025640;28;20073;-69
2022/01/20 09:28:10;;;;;;;256.45;241.85;;;;;;;6.21;54.93;101384.06;5026450;28;20053;-69
2022/01/20 09:30:40;;;;;;;458.02;417.17;;;;;;;6.06;53.53;101392.28;5030066;28;20595;-69
2022/01/20 09:33:13;;;;;;;235.40;222.05;;;;;;;6.50;53.36;101384.25;5028541;28;20049;-69
2022/01/20 09:35:43;;;;;;;611.60;570.10;;;;;;;6.21;53.10;101384.06;5031615;28;20080;-68
2022/01/20 09:38:09;;;;;;;492.10;459.65;;;;;;;6.04;52.98;101386.22;5030076;28;20056;-68
2022/01/20 09:40:37;;;;;;;236.45;224.93;;;;;;;6.47;52.15;101376.50;5028645;28;20052;-68
2022/01/20 09:43:05;;;;;;;371.13;350.35;;;;;;;6.94;51.96;101384.88;5029496;28;20042;-68
2022/01/20 09:45:31;;;;;;;737.22;668.38;;;;;;;6.69;50.06;101380.28;5028948;28;20481;-68
2022/01/20 09:47:59;;;;;;;378.85;356.23;;;;;;;6.60;50.64;101380.53;5029206;28;20076;-67
2022/01/20 09:50:26;;;;;;;268.10;255.35;;;;;;;7.01;51.49;101389.88;5030399;28;20081;-67
2022/01/20 09:52:58;;;;;;;374.15;354.83;;;;;;;7.21;49.77;101394.53;5030172;28;20129;-67
2022/01/20 09:55:24;;;;;;;334.73;318.42;;;;;;;7.73;48.71;101389.53;5030251;28;20050;-67
2022/01/20 09:57:51;;;;;;;384.13;364.45;;;;;;;7.98;47.89;101397.50;5030061;28;20076;-67
2022/01/20 10:00:18;;;;;;;486.17;456.73;;;;;;;7.69;48.12;101400.13;5030610;28;20077;-67
2022/01/20 10:03:09;;;;;;;317.65;302.45;;;;;;;8.01;48.93;101396.56;5030497;28;20119;-68
2022/01/20 10:05:39;;;;;;;364.27;345.52;;;;;;;7.54;49.95;101411.03;5027030;28;20056;-68
2022/01/20 10:08:11;;;;;;;362.23;343.00;;;;;;;7.52;48.77;101403.22;5027522;28;20154;-68
2022/01/20 10:10:49;;;;;;;423.42;400.60;;;;;;;7.53;49.87;101391.91;5030172;28;20110;-68
2022/01/20 10:13:18;;;;;;;372.17;354.02;;;;;;;8.24;49.72;101404.56;5031026;28;20127;-68
2022/01/20 10:15:57;;;;;;;726.30;674.00;;;;;;;7.33;49.58;101402.03;5030753;28;20448;-68
2022/01/20 10:18:23;;;;;;;423.92;400.05;;;;;;;7.94;48.63;101389.81;5029572;28;20128;-69
2022/01/20 10:20:52;;;;;;;373.50;353.77;;;;;;;7.65;49.20;101388.91;5031071;28;20076;-69
2022/01/20 10:23:42;;;;;;;451.52;422.20;;;;;;;7.66;49.64;101400.22;5029559;28;20057;-69
2022/01/20 10:26:19;;;;;;;1116.88;849.63;;;;;;;7.24;49.81;101387.47;5029973;28;20092;-69
2022/01/20 10:28:56;;;;;;;505.75;475.15;;;;;;;7.46;49.35;101392.13;5029245;28;20077;-69
2022/01/20 10:31:38;;;;;;;300.73;286.67;;;;;;;8.14;48.70;101393.50;5030410;28;20104;-70
2022/01/20 10:34:06;;;;;;;865.42;777.60;;;;;;;7.33;49.93;101386.38;5029852;28;20052;-69
2022/01/20 10:36:39;;;;;;;447.45;420.73;;;;;;;7.67;50.60;101381.91;5029382;28;20476;-69
2022/01/20 10:39:07;;;;;;;765.22;708.42;;;;;;;8.07;50.15;101389.38;5029817;28;20791;-70
2022/01/20 10:41:35;;;;;;;745.38;668.28;;;;;;;8.12;49.64;101397.09;5031001;28;20509;-69
2022/01/20 10:44:07;;;;;;;610.38;569.72;;;;;;;8.18;49.84;101389.03;5028696;28;20073;-70
2022/01/20 10:46:49;;;;;;;285.00;270.60;;;;;;;8.48;49.21;101398.56;5030177;28;20073;-70
2022/01/20 10:49:16;;;;;;;539.00;506.85;;;;;;;8.58;48.82;101394.72;5031080;28;20057;-70
2022/01/20 10:51:44;;;;;;;423.40;398.63;;;;;;;8.57;47.69;101400.03;5030982;28;20072;-70
2022/01/20 10:54:14;;;;;;;536.25;502.00;;;;;;;7.63;49.55;101400.31;5029606;28;20053;-70
2022/01/20 10:56:51;;;;;;;728.13;657.58;;;;;;;7.56;50.47;101393.56;5028569;28;20049;-70
2022/01/20 10:59:18;;;;;;;476.15;447.70;;;;;;;7.88;50.33;101406.50;5029833;28;21389;-70
2022/01/20 11:01:45;;;;;;;491.10;462.77;;;;;;;8.09;50.00;101391.97;5031324;28;20485;-70
2022/01/20 11:04:11;;;;;;;792.63;718.15;;;;;;;7.60;50.75;101401.25;5031165;28;20474;-69
2022/01/20 11:06:39;;;;;;;503.55;471.00;;;;;;;8.32;49.52;101405.16;5029362;28;20107;-70
2022/01/20 11:09:08;;;;;;;477.00;448.80;;;;;;;8.18;49.67;101402.09;5028341;28;20057;-70
2022/01/20 11:11:36;;;;;;;828.58;740.47;;;;;;;7.52;50.29;101402.38;5031415;28;20053;-70
2022/01/20 11:14:03;;;;;;;658.78;610.40;;;;;;;6.54;53.55;101395.47;5031221;28;20103;-70
2022/01/20 11:16:34;;;;;;;382.67;363.35;;;;;;;7.02;52.73;101403.78;5030847;28;20112;-70
2022/01/20 11:19:01;;;;;;;535.85;502.25;;;;;;;6.78;52.93;101407.88;5031514;28;20073;-70
2022/01/20 11:21:28;;;;;;;272.42;259.08;;;;;;;6.19;54.07;101406.72;5029779;28;20119;-70
2022/01/20 11:23:54;;;;;;;187.23;177.02;;;;;;;5.70;56.57;101399.09;5030508;28;20049;-69
2022/01/20 11:26:21;;;;;;;107.95;100.80;;;;;;;5.83;55.96;101404.00;5031110;28;20426;-70
2022/01/20 11:29:01;;;;;;;363.95;337.85;;;;;;;5.43;57.18;101387.53;5030339;28;20081;-70
2022/01/20 11:31:34;;;;;;;183.95;173.25;;;;;;;5.64;57.43;101396.63;5028209;28;20053;-70
2022/01/20 11:34:01;;;;;;;190.30;178.85;;;;;;;5.51;58.61;101400.34;5026490;28;20083;-69
2022/01/20 11:36:31;;;;;;;161.05;152.40;;;;;;;5.72;57.59;101394.72;5027830;28;20057;-70
2022/01/20 11:39:01;;;;;;;413.02;384.48;;;;;;;5.75;56.98;101398.13;5028394;28;20128;-70
2022/01/20 11:41:36;;;;;;;225.07;210.93;;;;;;;5.75;55.43;101405.06;5027758;28;20049;-70
2022/01/20 11:44:11;;;;;;;422.10;393.88;;;;;;;5.38;57.13;101389.34;5027754;28;20063;-70
2022/01/20 11:46:39;;;;;;;116.53;109.97;;;;;;;5.68;57.04;101393.06;5027082;28;20061;-70
2022/01/20 11:49:08;;;;;;;248.55;230.93;;;;;;;5.08;55.56;101393.41;5027902;28;20444;-70
2022/01/20 11:51:49;;;;;;;103.40;97.63;;;;;;;4.83;59.15;101402.53;5026926;28;20053;-70
2022/01/20 11:54:27;;;;;;;153.77;145.77;;;;;;;4.99;59.02;101405.72;5027898;28;20060;-69
2022/01/20 11:57:05;;;;;;;133.50;126.75;;;;;;;4.80;59.57;101402.59;5026791;28;20060;-69
2022/01/20 11:59:41;;;;;;;186.45;176.25;;;;;;;5.24;58.28;101392.22;5028516;28;20127;-70